sensor_id;sensor_type;location;lat;lon;timestamp;temperature;humidity
11840;DHT22;5979;50.800;4.904;2024-01-25T00:01:53;9.20;99.90
11840;DHT22;5979;50.800;4.904;2024-01-25T00:04:19;9.20;99.90
11840;DHT22;5979;50.800;4.904;2024-01-25T00:06:45;9.20;99.90
11840;DHT22;5979;50.800;4.904;2024-01-25T00:09:11;9.10;99.90
11840;DHT22;5979;50.800;4.904;2024-01-25T00:11:36;9.10;99.90
11840;DHT22;5979;50.800;4.904;2024-01-25T00:14:02;9.10;99.90
11840;DHT22;5979;50.800;4.904;2024-01-25T00:16:28;9.10;99.90
11840;DHT22;5979;50.800;4.904;2024-01-25T00:18:54;9.10;99.90
11840;DHT22;5979;50.800;4.904;2024-01-25T00:21:20;9.10;99.90
11840;DHT22;5979;50.800;4.904;2024-01-25T00:23:45;9.10;99.90
11840;DHT22;5979;50.800;4.904;2024-01-25T00:26:12;9.10;99.90
11840;DHT22;5979;50.800;4.904;2024-01-25T00:28:38;9.00;99.90
11840;DHT22;5979;50.800;4.904;2024-01-25T00:31:04;9.00;99.90
11840;DHT22;5979;50.800;4.904;2024-01-25T00:33:29;9.00;99.90
11840;DHT22;5979;50.800;4.904;2024-01-25T00:35:55;9.00;99.90
11840;DHT22;5979;50.800;4.904;2024-01-25T00:38:21;8.90;99.90
11840;DHT22;5979;50.800;4.904;2024-01-25T00:40:47;8.90;99.90
11840;DHT22;5979;50.800;4.904;2024-01-25T00:43:13;8.80;99.90
11840;DHT22;5979;50.800;4.904;2024-01-25T00:45:39;8.80;99.90
11840;DHT22;5979;50.800;4.904;2024-01-25T00:48:05;8.80;99.90
11840;DHT22;5979;50.800;4.904;2024-01-25T00:50:32;8.80;99.90
11840;DHT22;5979;50.800;4.904;2024-01-25T00:52:57;8.80;99.90
11840;DHT22;5979;50.800;4.904;2024-01-25T00:55:23;8.80;99.90
11840;DHT22;5979;50.800;4.904;2024-01-25T00:57:49;8.80;99.90
11840;DHT22;5979;50.800;4.904;2024-01-25T01:00:17;8.70;99.90
11840;DHT22;5979;50.800;4.904;2024-01-25T01:02:44;8.70;99.90
11840;DHT22;5979;50.800;4.904;2024-01-25T01:05:11;8.80;99.90
11840;DHT22;5979;50.800;4.904;2024-01-25T01:07:38;8.80;99.90
11840;DHT22;5979;50.800;4.904;2024-01-25T01:10:07;8.80;99.90
11840;DHT22;5979;50.800;4.904;2024-01-25T01:12:33;8.80;99.90
11840;DHT22;5979;50.800;4.904;2024-01-25T01:14:59;8.80;99.90
11840;DHT22;5979;50.800;4.904;2024-01-25T01:17:25;8.70;99.90
11840;DHT22;5979;50.800;4.904;2024-01-25T01:19:50;8.70;99.90
11840;DHT22;5979;50.800;4.904;2024-01-25T01:22:16;8.70;99.90
11840;DHT22;5979;50.800;4.904;2024-01-25T01:24:42;8.60;99.90
11840;DHT22;5979;50.800;4.904;2024-01-25T01:27:07;8.60;99.90
11840;DHT22;5979;50.800;4.904;2024-01-25T01:29:33;8.50;99.90
11840;DHT22;5979;50.800;4.904;2024-01-25T01:31:59;8.50;99.90
11840;DHT22;5979;50.800;4.904;2024-01-25T01:34:24;8.50;99.90
11840;DHT22;5979;50.800;4.904;2024-01-25T01:36:50;8.40;99.90
11840;DHT22;5979;50.800;4.904;2024-01-25T01:39:16;8.40;99.90
11840;DHT22;5979;50.800;4.904;2024-01-25T01:41:41;8.30;99.90
11840;DHT22;5979;50.800;4.904;2024-01-25T01:44:07;8.30;99.90
11840;DHT22;5979;50.800;4.904;2024-01-25T01:46:37;8.30;99.90
11840;DHT22;5979;50.800;4.904;2024-01-25T01:49:07;8.20;99.90
11840;DHT22;5979;50.800;4.904;2024-01-25T01:51:35;8.20;99.90
11840;DHT22;5979;50.800;4.904;2024-01-25T01:54:01;8.20;99.90
11840;DHT22;5979;50.800;4.904;2024-01-25T01:56:28;8.10;99.90
11840;DHT22;5979;50.800;4.904;2024-01-25T01:59:05;8.10;99.90
11840;DHT22;5979;50.800;4.904;2024-01-25T02:01:33;8.10;99.90
11840;DHT22;5979;50.800;4.904;2024-01-25T02:03:59;8.00;99.90
11840;DHT22;5979;50.800;4.904;2024-01-25T02:06:25;8.00;99.90
11840;DHT22;5979;50.800;4.904;2024-01-25T02:08:51;7.90;99.90
11840;DHT22;5979;50.800;4.904;2024-01-25T02:11:18;7.90;99.90
11840;DHT22;5979;50.800;4.904;2024-01-25T02:13:44;7.80;99.90
11840;DHT22;5979;50.800;4.904;2024-01-25T02:16:10;7.80;99.90
11840;DHT22;5979;50.800;4.904;2024-01-25T02:18:36;7.80;99.90
11840;DHT22;5979;50.800;4.904;2024-01-25T02:21:02;7.70;99.90
11840;DHT22;5979;50.800;4.904;2024-01-25T02:23:27;7.70;99.90
11840;DHT22;5979;50.800;4.904;2024-01-25T02:25:53;7.70;99.90
11840;DHT22;5979;50.800;4.904;2024-01-25T02:28:19;7.70;99.90
11840;DHT22;5979;50.800;4.904;2024-01-25T02:30:44;7.60;99.90
11840;DHT22;5979;50.800;4.904;2024-01-25T02:33:10;7.60;99.90
11840;DHT22;5979;50.800;4.904;2024-01-25T02:35:37;7.60;99.90
11840;DHT22;5979;50.800;4.904;2024-01-25T02:38:03;7.50;99.90
11840;DHT22;5979;50.800;4.904;2024-01-25T02:40:29;7.50;99.90
11840;DHT22;5979;50.800;4.904;2024-01-25T02:42:55;7.50;99.90
11840;DHT22;5979;50.800;4.904;2024-01-25T02:45:22;7.40;99.90
11840;DHT22;5979;50.800;4.904;2024-01-25T02:47:47;7.40;99.90
11840;DHT22;5979;50.800;4.904;2024-01-25T02:50:13;7.40;99.90
11840;DHT22;5979;50.800;4.904;2024-01-25T02:52:40;7.30;99.90
11840;DHT22;5979;50.800;4.904;2024-01-25T02:55:06;7.30;99.90
11840;DHT22;5979;50.800;4.904;2024-01-25T02:57:32;7.30;99.90
11840;DHT22;5979;50.800;4.904;2024-01-25T02:59:58;7.30;99.90
11840;DHT22;5979;50.800;4.904;2024-01-25T03:02:23;7.30;99.90
11840;DHT22;5979;50.800;4.904;2024-01-25T03:04:49;7.30;99.90
11840;DHT22;5979;50.800;4.904;2024-01-25T03:07:15;7.30;99.90
11840;DHT22;5979;50.800;4.904;2024-01-25T03:09:41;7.30;99.90
11840;DHT22;5979;50.800;4.904;2024-01-25T03:12:06;7.20;99.90
11840;DHT22;5979;50.800;4.904;2024-01-25T03:14:32;7.20;99.90
11840;DHT22;5979;50.800;4.904;2024-01-25T03:16:58;7.20;99.90
11840;DHT22;5979;50.800;4.904;2024-01-25T03:19:24;7.20;99.90
11840;DHT22;5979;50.800;4.904;2024-01-25T03:21:51;7.10;99.90
11840;DHT22;5979;50.800;4.904;2024-01-25T03:24:17;7.10;99.90
11840;DHT22;5979;50.800;4.904;2024-01-25T03:26:42;7.10;99.90
11840;DHT22;5979;50.800;4.904;2024-01-25T03:29:08;7.10;99.90
11840;DHT22;5979;50.800;4.904;2024-01-25T03:31:34;7.00;99.90
11840;DHT22;5979;50.800;4.904;2024-01-25T03:34:01;7.00;99.90
11840;DHT22;5979;50.800;4.904;2024-01-25T03:36:27;7.00;99.90
11840;DHT22;5979;50.800;4.904;2024-01-25T03:38:52;6.90;99.90
11840;DHT22;5979;50.800;4.904;2024-01-25T03:41:18;6.90;99.90
11840;DHT22;5979;50.800;4.904;2024-01-25T03:43:44;6.90;99.90
11840;DHT22;5979;50.800;4.904;2024-01-25T03:46:11;6.80;99.90
11840;DHT22;5979;50.800;4.904;2024-01-25T03:48:37;6.80;99.90
11840;DHT22;5979;50.800;4.904;2024-01-25T03:51:03;6.80;99.90
11840;DHT22;5979;50.800;4.904;2024-01-25T03:53:28;6.70;99.90
11840;DHT22;5979;50.800;4.904;2024-01-25T03:55:54;6.70;99.90
11840;DHT22;5979;50.800;4.904;2024-01-25T03:58:20;6.70;99.90
11840;DHT22;5979;50.800;4.904;2024-01-25T04:00:45;6.60;99.90
11840;DHT22;5979;50.800;4.904;2024-01-25T04:03:11;6.60;99.90
11840;DHT22;5979;50.800;4.904;2024-01-25T04:05:37;6.60;99.90
11840;DHT22;5979;50.800;4.904;2024-01-25T04:08:05;6.50;99.90
11840;DHT22;5979;50.800;4.904;2024-01-25T04:10:32;6.50;99.90
11840;DHT22;5979;50.800;4.904;2024-01-25T04:12:57;6.50;99.90
11840;DHT22;5979;50.800;4.904;2024-01-25T04:15:23;6.40;99.90
11840;DHT22;5979;50.800;4.904;2024-01-25T04:17:49;6.40;99.90
11840;DHT22;5979;50.800;4.904;2024-01-25T04:20:40;6.30;99.90
11840;DHT22;5979;50.800;4.904;2024-01-25T04:23:06;6.30;99.90
11840;DHT22;5979;50.800;4.904;2024-01-25T04:25:32;6.30;99.90
11840;DHT22;5979;50.800;4.904;2024-01-25T04:27:58;6.30;99.90
11840;DHT22;5979;50.800;4.904;2024-01-25T04:30:23;6.20;99.90
11840;DHT22;5979;50.800;4.904;2024-01-25T04:32:49;6.20;99.90
11840;DHT22;5979;50.800;4.904;2024-01-25T04:35:15;6.20;99.90
11840;DHT22;5979;50.800;4.904;2024-01-25T04:37:40;6.20;99.90
11840;DHT22;5979;50.800;4.904;2024-01-25T04:40:07;6.20;99.90
11840;DHT22;5979;50.800;4.904;2024-01-25T04:42:33;6.20;99.90
11840;DHT22;5979;50.800;4.904;2024-01-25T04:44:58;6.20;99.90
11840;DHT22;5979;50.800;4.904;2024-01-25T04:47:24;6.10;99.90
11840;DHT22;5979;50.800;4.904;2024-01-25T04:49:50;6.10;99.90
11840;DHT22;5979;50.800;4.904;2024-01-25T04:52:15;6.20;99.90
11840;DHT22;5979;50.800;4.904;2024-01-25T04:54:41;6.10;99.90
11840;DHT22;5979;50.800;4.904;2024-01-25T04:57:07;6.10;99.90
11840;DHT22;5979;50.800;4.904;2024-01-25T04:59:33;6.10;99.90
11840;DHT22;5979;50.800;4.904;2024-01-25T05:01:59;6.10;99.90
11840;DHT22;5979;50.800;4.904;2024-01-25T05:04:25;6.00;99.90
11840;DHT22;5979;50.800;4.904;2024-01-25T05:06:51;6.00;99.90
11840;DHT22;5979;50.800;4.904;2024-01-25T05:09:17;6.00;99.90
11840;DHT22;5979;50.800;4.904;2024-01-25T05:11:42;5.90;99.90
11840;DHT22;5979;50.800;4.904;2024-01-25T05:14:08;5.90;99.90
11840;DHT22;5979;50.800;4.904;2024-01-25T05:16:34;5.90;99.90
11840;DHT22;5979;50.800;4.904;2024-01-25T05:19:00;5.90;99.90
11840;DHT22;5979;50.800;4.904;2024-01-25T05:21:26;5.90;99.90
11840;DHT22;5979;50.800;4.904;2024-01-25T05:23:52;5.90;99.90
11840;DHT22;5979;50.800;4.904;2024-01-25T05:26:17;5.90;99.90
11840;DHT22;5979;50.800;4.904;2024-01-25T05:28:44;5.90;99.90
11840;DHT22;5979;50.800;4.904;2024-01-25T05:31:10;5.90;99.90
11840;DHT22;5979;50.800;4.904;2024-01-25T05:33:39;5.90;99.90
11840;DHT22;5979;50.800;4.904;2024-01-25T05:36:05;5.80;99.90
11840;DHT22;5979;50.800;4.904;2024-01-25T05:38:31;5.80;99.90
11840;DHT22;5979;50.800;4.904;2024-01-25T05:40:58;5.80;99.90
11840;DHT22;5979;50.800;4.904;2024-01-25T05:43:24;5.80;99.90
11840;DHT22;5979;50.800;4.904;2024-01-25T05:45:49;5.80;99.90
11840;DHT22;5979;50.800;4.904;2024-01-25T05:48:15;5.70;99.90
11840;DHT22;5979;50.800;4.904;2024-01-25T05:50:41;5.70;99.90
11840;DHT22;5979;50.800;4.904;2024-01-25T05:53:07;5.70;99.90
11840;DHT22;5979;50.800;4.904;2024-01-25T05:55:32;5.60;99.90
11840;DHT22;5979;50.800;4.904;2024-01-25T05:57:58;5.60;99.90
11840;DHT22;5979;50.800;4.904;2024-01-25T06:00:24;5.60;99.90
11840;DHT22;5979;50.800;4.904;2024-01-25T06:02:49;5.60;99.90
11840;DHT22;5979;50.800;4.904;2024-01-25T06:05:15;5.60;99.90
11840;DHT22;5979;50.800;4.904;2024-01-25T06:07:41;5.60;99.90
11840;DHT22;5979;50.800;4.904;2024-01-25T06:10:07;5.60;99.90
11840;DHT22;5979;50.800;4.904;2024-01-25T06:12:34;5.60;99.90
11840;DHT22;5979;50.800;4.904;2024-01-25T06:14:59;5.50;99.90
11840;DHT22;5979;50.800;4.904;2024-01-25T06:17:25;5.50;99.90
11840;DHT22;5979;50.800;4.904;2024-01-25T06:19:50;5.50;99.90
11840;DHT22;5979;50.800;4.904;2024-01-25T06:22:16;5.50;99.90
11840;DHT22;5979;50.800;4.904;2024-01-25T06:24:43;5.50;99.90
11840;DHT22;5979;50.800;4.904;2024-01-25T06:27:11;5.40;99.90
11840;DHT22;5979;50.800;4.904;2024-01-25T06:29:37;5.40;99.90
11840;DHT22;5979;50.800;4.904;2024-01-25T06:32:03;5.40;99.90
11840;DHT22;5979;50.800;4.904;2024-01-25T06:34:29;5.40;99.90
11840;DHT22;5979;50.800;4.904;2024-01-25T06:36:54;5.40;99.90
11840;DHT22;5979;50.800;4.904;2024-01-25T06:39:20;5.40;99.90
11840;DHT22;5979;50.800;4.904;2024-01-25T06:41:46;5.40;99.90
11840;DHT22;5979;50.800;4.904;2024-01-25T06:44:12;5.40;99.90
11840;DHT22;5979;50.800;4.904;2024-01-25T06:46:38;5.50;99.90
11840;DHT22;5979;50.800;4.904;2024-01-25T06:49:04;5.50;99.90
11840;DHT22;5979;50.800;4.904;2024-01-25T06:51:29;5.50;99.90
11840;DHT22;5979;50.800;4.904;2024-01-25T06:53:55;5.50;99.90
11840;DHT22;5979;50.800;4.904;2024-01-25T06:56:21;5.60;99.90
11840;DHT22;5979;50.800;4.904;2024-01-25T06:58:47;5.50;99.90
11840;DHT22;5979;50.800;4.904;2024-01-25T07:01:12;5.50;99.90
11840;DHT22;5979;50.800;4.904;2024-01-25T07:03:39;5.50;99.90
11840;DHT22;5979;50.800;4.904;2024-01-25T07:06:05;5.60;99.90
11840;DHT22;5979;50.800;4.904;2024-01-25T07:08:31;5.60;99.90
11840;DHT22;5979;50.800;4.904;2024-01-25T07:10:56;5.60;99.90
11840;DHT22;5979;50.800;4.904;2024-01-25T07:13:24;5.60;99.90
11840;DHT22;5979;50.800;4.904;2024-01-25T07:15:50;5.60;99.90
11840;DHT22;5979;50.800;4.904;2024-01-25T07:18:16;5.50;99.90
11840;DHT22;5979;50.800;4.904;2024-01-25T07:20:41;5.50;99.90
11840;DHT22;5979;50.800;4.904;2024-01-25T07:23:07;5.50;99.90
11840;DHT22;5979;50.800;4.904;2024-01-25T07:25:33;5.60;99.90
11840;DHT22;5979;50.800;4.904;2024-01-25T07:27:59;5.50;99.90
11840;DHT22;5979;50.800;4.904;2024-01-25T07:30:25;5.60;99.90
11840;DHT22;5979;50.800;4.904;2024-01-25T07:32:50;5.60;99.90
11840;DHT22;5979;50.800;4.904;2024-01-25T07:35:16;5.60;99.90
11840;DHT22;5979;50.800;4.904;2024-01-25T07:37:43;5.50;99.90
11840;DHT22;5979;50.800;4.904;2024-01-25T07:40:09;5.50;99.90
11840;DHT22;5979;50.800;4.904;2024-01-25T07:42:35;5.50;99.90
11840;DHT22;5979;50.800;4.904;2024-01-25T07:45:00;5.50;99.90
11840;DHT22;5979;50.800;4.904;2024-01-25T07:47:26;5.50;99.90
11840;DHT22;5979;50.800;4.904;2024-01-25T07:49:52;5.40;99.90
11840;DHT22;5979;50.800;4.904;2024-01-25T07:52:17;5.50;99.90
11840;DHT22;5979;50.800;4.904;2024-01-25T07:54:43;5.50;99.90
11840;DHT22;5979;50.800;4.904;2024-01-25T07:57:10;5.60;99.90
11840;DHT22;5979;50.800;4.904;2024-01-25T07:59:35;5.60;99.90
11840;DHT22;5979;50.800;4.904;2024-01-25T08:02:01;5.70;99.90
11840;DHT22;5979;50.800;4.904;2024-01-25T08:04:27;5.70;99.90
11840;DHT22;5979;50.800;4.904;2024-01-25T08:06:52;5.80;99.90
11840;DHT22;5979;50.800;4.904;2024-01-25T08:09:18;5.80;99.90
11840;DHT22;5979;50.800;4.904;2024-01-25T08:11:44;5.90;99.90
11840;DHT22;5979;50.800;4.904;2024-01-25T08:14:10;5.80;99.90
11840;DHT22;5979;50.800;4.904;2024-01-25T08:16:36;5.90;99.90
11840;DHT22;5979;50.800;4.904;2024-01-25T08:19:02;5.90;99.90
11840;DHT22;5979;50.800;4.904;2024-01-25T08:21:28;6.00;99.90
11840;DHT22;5979;50.800;4.904;2024-01-25T08:23:54;6.00;99.90
11840;DHT22;5979;50.800;4.904;2024-01-25T08:26:20;6.00;99.90
11840;DHT22;5979;50.800;4.904;2024-01-25T08:28:46;6.10;99.90
11840;DHT22;5979;50.800;4.904;2024-01-25T08:31:12;6.10;99.90
11840;DHT22;5979;50.800;4.904;2024-01-25T08:33:39;6.20;99.90
11840;DHT22;5979;50.800;4.904;2024-01-25T08:36:10;6.30;99.90
11840;DHT22;5979;50.800;4.904;2024-01-25T08:38:35;6.30;99.90
11840;DHT22;5979;50.800;4.904;2024-01-25T08:41:01;6.40;99.90
11840;DHT22;5979;50.800;4.904;2024-01-25T08:43:27;6.40;99.90
11840;DHT22;5979;50.800;4.904;2024-01-25T08:45:53;6.50;99.90
11840;DHT22;5979;50.800;4.904;2024-01-25T08:48:19;6.60;99.90
11840;DHT22;5979;50.800;4.904;2024-01-25T08:50:45;6.70;99.90
11840;DHT22;5979;50.800;4.904;2024-01-25T08:53:11;6.70;99.90
11840;DHT22;5979;50.800;4.904;2024-01-25T08:55:36;6.80;99.90
11840;DHT22;5979;50.800;4.904;2024-01-25T08:58:02;6.80;99.90
11840;DHT22;5979;50.800;4.904;2024-01-25T09:00:28;6.90;99.90
11840;DHT22;5979;50.800;4.904;2024-01-25T09:02:53;6.90;99.90
11840;DHT22;5979;50.800;4.904;2024-01-25T09:05:19;7.00;99.90
11840;DHT22;5979;50.800;4.904;2024-01-25T09:07:45;7.10;99.90
11840;DHT22;5979;50.800;4.904;2024-01-25T09:10:11;7.20;99.90
11840;DHT22;5979;50.800;4.904;2024-01-25T09:12:37;7.20;99.90
11840;DHT22;5979;50.800;4.904;2024-01-25T09:15:03;7.30;99.90
11840;DHT22;5979;50.800;4.904;2024-01-25T09:17:29;7.30;99.90
11840;DHT22;5979;50.800;4.904;2024-01-25T09:19:55;7.30;99.90
11840;DHT22;5979;50.800;4.904;2024-01-25T09:22:24;7.40;99.90
11840;DHT22;5979;50.800;4.904;2024-01-25T09:24:50;7.40;99.90
11840;DHT22;5979;50.800;4.904;2024-01-25T09:27:15;7.40;99.90
11840;DHT22;5979;50.800;4.904;2024-01-25T09:29:41;7.50;99.90
11840;DHT22;5979;50.800;4.904;2024-01-25T09:32:08;7.60;99.90
11840;DHT22;5979;50.800;4.904;2024-01-25T09:34:35;7.80;99.90
11840;DHT22;5979;50.800;4.904;2024-01-25T09:37:01;7.80;99.90
11840;DHT22;5979;50.800;4.904;2024-01-25T09:39:28;7.80;99.90
11840;DHT22;5979;50.800;4.904;2024-01-25T09:41:53;7.90;99.90
11840;DHT22;5979;50.800;4.904;2024-01-25T09:44:20;7.90;99.90
11840;DHT22;5979;50.800;4.904;2024-01-25T09:46:46;7.90;99.90
11840;DHT22;5979;50.800;4.904;2024-01-25T09:49:12;8.00;99.90
11840;DHT22;5979;50.800;4.904;2024-01-25T09:51:39;8.00;99.90
11840;DHT22;5979;50.800;4.904;2024-01-25T09:54:07;8.00;99.90
11840;DHT22;5979;50.800;4.904;2024-01-25T09:56:34;8.10;99.90
11840;DHT22;5979;50.800;4.904;2024-01-25T09:59:00;8.10;99.90
11840;DHT22;5979;50.800;4.904;2024-01-25T10:01:27;8.10;99.90
11840;DHT22;5979;50.800;4.904;2024-01-25T10:03:53;8.10;99.90
11840;DHT22;5979;50.800;4.904;2024-01-25T10:06:22;8.10;99.90
11840;DHT22;5979;50.800;4.904;2024-01-25T10:08:48;8.20;99.90
11840;DHT22;5979;50.800;4.904;2024-01-25T10:11:15;8.20;99.90
11840;DHT22;5979;50.800;4.904;2024-01-25T10:13:44;8.20;99.90
11840;DHT22;5979;50.800;4.904;2024-01-25T10:16:14;8.30;99.90
11840;DHT22;5979;50.800;4.904;2024-01-25T10:18:41;8.30;99.90
11840;DHT22;5979;50.800;4.904;2024-01-25T10:21:09;8.40;99.90
11840;DHT22;5979;50.800;4.904;2024-01-25T10:23:35;8.50;99.90
11840;DHT22;5979;50.800;4.904;2024-01-25T10:26:01;8.50;99.90
11840;DHT22;5979;50.800;4.904;2024-01-25T10:28:33;8.60;99.90
11840;DHT22;5979;50.800;4.904;2024-01-25T10:31:00;8.70;99.90
11840;DHT22;5979;50.800;4.904;2024-01-25T10:33:27;8.80;99.90
11840;DHT22;5979;50.800;4.904;2024-01-25T10:35:57;8.80;99.90
11840;DHT22;5979;50.800;4.904;2024-01-25T10:38:35;8.90;99.90
11840;DHT22;5979;50.800;4.904;2024-01-25T10:41:02;9.00;99.90
11840;DHT22;5979;50.800;4.904;2024-01-25T10:43:29;9.10;99.90
11840;DHT22;5979;50.800;4.904;2024-01-25T10:45:58;9.10;99.90
11840;DHT22;5979;50.800;4.904;2024-01-25T10:48:28;9.20;99.90
11840;DHT22;5979;50.800;4.904;2024-01-25T10:50:57;9.30;99.90
11840;DHT22;5979;50.800;4.904;2024-01-25T10:53:26;9.40;99.90
11840;DHT22;5979;50.800;4.904;2024-01-25T10:55:54;9.40;99.90
11840;DHT22;5979;50.800;4.904;2024-01-25T10:58:20;9.40;99.90
11840;DHT22;5979;50.800;4.904;2024-01-25T11:00:51;9.40;99.90
11840;DHT22;5979;50.800;4.904;2024-01-25T11:03:18;9.40;99.90
11840;DHT22;5979;50.800;4.904;2024-01-25T11:05:44;9.30;99.90
11840;DHT22;5979;50.800;4.904;2024-01-25T11:08:18;9.30;99.90
11840;DHT22;5979;50.800;4.904;2024-01-25T11:10:50;9.30;99.90
11840;DHT22;5979;50.800;4.904;2024-01-25T11:13:23;9.30;99.90
11840;DHT22;5979;50.800;4.904;2024-01-25T11:15:49;9.30;99.90
11840;DHT22;5979;50.800;4.904;2024-01-25T11:18:16;9.30;99.90
11840;DHT22;5979;50.800;4.904;2024-01-25T11:20:41;9.40;99.90
11840;DHT22;5979;50.800;4.904;2024-01-25T11:23:07;9.40;99.90
11840;DHT22;5979;50.800;4.904;2024-01-25T11:25:37;9.50;99.90
11840;DHT22;5979;50.800;4.904;2024-01-25T11:28:04;9.50;99.90
11840;DHT22;5979;50.800;4.904;2024-01-25T11:30:34;9.60;99.90
11840;DHT22;5979;50.800;4.904;2024-01-25T11:33:02;9.60;99.90
11840;DHT22;5979;50.800;4.904;2024-01-25T11:35:31;9.70;99.90
11840;DHT22;5979;50.800;4.904;2024-01-25T11:37:56;9.70;99.90
11840;DHT22;5979;50.800;4.904;2024-01-25T11:40:23;9.80;99.90
11840;DHT22;5979;50.800;4.904;2024-01-25T11:43:07;9.80;99.90
11840;DHT22;5979;50.800;4.904;2024-01-25T11:45:36;9.90;99.90
11840;DHT22;5979;50.800;4.904;2024-01-25T11:48:07;9.90;99.90
11840;DHT22;5979;50.800;4.904;2024-01-25T11:50:33;10.00;99.90
11840;DHT22;5979;50.800;4.904;2024-01-25T11:52:59;10.00;99.90
11840;DHT22;5979;50.800;4.904;2024-01-25T11:55:25;10.00;99.90
11840;DHT22;5979;50.800;4.904;2024-01-25T11:57:50;9.90;99.90
11840;DHT22;5979;50.800;4.904;2024-01-25T12:00:17;10.00;99.90
11840;DHT22;5979;50.800;4.904;2024-01-25T12:02:43;9.90;99.90
11840;DHT22;5979;50.800;4.904;2024-01-25T12:05:10;9.90;99.90
11840;DHT22;5979;50.800;4.904;2024-01-25T12:07:39;9.90;99.90
11840;DHT22;5979;50.800;4.904;2024-01-25T12:10:07;9.90;99.90
11840;DHT22;5979;50.800;4.904;2024-01-25T12:12:37;9.90;99.90
11840;DHT22;5979;50.800;4.904;2024-01-25T12:15:05;9.90;99.90
11840;DHT22;5979;50.800;4.904;2024-01-25T12:17:32;9.90;99.90
11840;DHT22;5979;50.800;4.904;2024-01-25T12:19:58;9.90;99.90
11840;DHT22;5979;50.800;4.904;2024-01-25T12:22:27;9.90;99.90
11840;DHT22;5979;50.800;4.904;2024-01-25T12:24:57;9.90;99.90
11840;DHT22;5979;50.800;4.904;2024-01-25T12:27:24;9.90;99.90
11840;DHT22;5979;50.800;4.904;2024-01-25T12:29:53;9.80;99.90
11840;DHT22;5979;50.800;4.904;2024-01-25T12:32:22;9.80;99.90
11840;DHT22;5979;50.800;4.904;2024-01-25T12:34:58;9.80;99.90
11840;DHT22;5979;50.800;4.904;2024-01-25T12:37:24;9.80;99.90
11840;DHT22;5979;50.800;4.904;2024-01-25T12:39:53;9.80;99.90
11840;DHT22;5979;50.800;4.904;2024-01-25T12:42:20;9.80;99.90
11840;DHT22;5979;50.800;4.904;2024-01-25T12:44:46;9.80;99.90
11840;DHT22;5979;50.800;4.904;2024-01-25T12:47:12;9.80;99.90
11840;DHT22;5979;50.800;4.904;2024-01-25T12:49:44;9.80;99.90
11840;DHT22;5979;50.800;4.904;2024-01-25T12:52:12;9.80;99.90
11840;DHT22;5979;50.800;4.904;2024-01-25T12:54:38;9.80;99.90
11840;DHT22;5979;50.800;4.904;2024-01-25T12:57:22;9.90;99.90
11840;DHT22;5979;50.800;4.904;2024-01-25T12:59:48;10.00;99.90
11840;DHT22;5979;50.800;4.904;2024-01-25T13:02:15;10.00;99.90
11840;DHT22;5979;50.800;4.904;2024-01-25T13:04:41;10.10;99.90
11840;DHT22;5979;50.800;4.904;2024-01-25T13:07:06;10.10;99.90
11840;DHT22;5979;50.800;4.904;2024-01-25T13:09:32;10.10;99.90
11840;DHT22;5979;50.800;4.904;2024-01-25T13:12:00;10.20;99.90
11840;DHT22;5979;50.800;4.904;2024-01-25T13:14:26;10.10;99.90
11840;DHT22;5979;50.800;4.904;2024-01-25T13:16:52;10.20;99.90
11840;DHT22;5979;50.800;4.904;2024-01-25T13:19:17;10.10;99.90
11840;DHT22;5979;50.800;4.904;2024-01-25T13:21:43;10.10;99.90
11840;DHT22;5979;50.800;4.904;2024-01-25T13:24:09;10.10;99.90
11840;DHT22;5979;50.800;4.904;2024-01-25T13:26:36;10.10;99.90
11840;DHT22;5979;50.800;4.904;2024-01-25T13:29:02;10.20;99.90
11840;DHT22;5979;50.800;4.904;2024-01-25T13:31:28;10.10;99.90
11840;DHT22;5979;50.800;4.904;2024-01-25T13:33:53;10.20;99.90
11840;DHT22;5979;50.800;4.904;2024-01-25T13:36:19;10.20;99.90
11840;DHT22;5979;50.800;4.904;2024-01-25T13:38:45;10.20;99.90
11840;DHT22;5979;50.800;4.904;2024-01-25T13:41:11;10.20;99.90
11840;DHT22;5979;50.800;4.904;2024-01-25T13:43:36;10.20;99.90
11840;DHT22;5979;50.800;4.904;2024-01-25T13:46:02;10.30;99.90
11840;DHT22;5979;50.800;4.904;2024-01-25T13:48:28;10.30;99.90
11840;DHT22;5979;50.800;4.904;2024-01-25T13:50:54;10.40;99.90
11840;DHT22;5979;50.800;4.904;2024-01-25T13:53:19;10.40;99.90
11840;DHT22;5979;50.800;4.904;2024-01-25T13:55:45;10.40;99.90
11840;DHT22;5979;50.800;4.904;2024-01-25T13:58:11;10.50;99.90
11840;DHT22;5979;50.800;4.904;2024-01-25T14:00:36;10.50;99.90
11840;DHT22;5979;50.800;4.904;2024-01-25T14:03:02;10.50;99.90
11840;DHT22;5979;50.800;4.904;2024-01-25T14:05:28;10.60;99.90
11840;DHT22;5979;50.800;4.904;2024-01-25T14:07:53;10.70;99.90
11840;DHT22;5979;50.800;4.904;2024-01-25T14:10:19;10.70;99.90
11840;DHT22;5979;50.800;4.904;2024-01-25T14:12:45;10.70;99.90
11840;DHT22;5979;50.800;4.904;2024-01-25T14:15:11;10.70;99.90
11840;DHT22;5979;50.800;4.904;2024-01-25T14:17:37;10.70;99.90
11840;DHT22;5979;50.800;4.904;2024-01-25T14:20:04;10.80;99.90
11840;DHT22;5979;50.800;4.904;2024-01-25T14:22:30;10.70;99.90
11840;DHT22;5979;50.800;4.904;2024-01-25T14:24:56;10.70;99.90
11840;DHT22;5979;50.800;4.904;2024-01-25T14:27:22;10.70;99.90
11840;DHT22;5979;50.800;4.904;2024-01-25T14:29:47;10.80;99.90
11840;DHT22;5979;50.800;4.904;2024-01-25T14:32:13;10.70;99.90
11840;DHT22;5979;50.800;4.904;2024-01-25T14:34:39;10.70;99.90
11840;DHT22;5979;50.800;4.904;2024-01-25T14:37:06;10.70;99.90
11840;DHT22;5979;50.800;4.904;2024-01-25T14:39:31;10.70;99.90
11840;DHT22;5979;50.800;4.904;2024-01-25T14:41:57;10.70;99.90
11840;DHT22;5979;50.800;4.904;2024-01-25T14:44:23;10.70;99.90
11840;DHT22;5979;50.800;4.904;2024-01-25T14:46:48;10.70;99.90
11840;DHT22;5979;50.800;4.904;2024-01-25T14:49:14;10.80;99.90
11840;DHT22;5979;50.800;4.904;2024-01-25T14:51:40;10.80;99.90
11840;DHT22;5979;50.800;4.904;2024-01-25T14:54:06;10.80;99.90
11840;DHT22;5979;50.800;4.904;2024-01-25T14:56:32;10.80;99.90
11840;DHT22;5979;50.800;4.904;2024-01-25T14:58:58;10.80;99.90
11840;DHT22;5979;50.800;4.904;2024-01-25T15:01:24;10.80;99.90
11840;DHT22;5979;50.800;4.904;2024-01-25T15:04:13;10.80;99.90
11840;DHT22;5979;50.800;4.904;2024-01-25T15:06:41;10.90;99.90
11840;DHT22;5979;50.800;4.904;2024-01-25T15:09:07;10.80;99.90
11840;DHT22;5979;50.800;4.904;2024-01-25T15:11:32;10.80;99.90
11840;DHT22;5979;50.800;4.904;2024-01-25T15:13:58;10.80;99.90
11840;DHT22;5979;50.800;4.904;2024-01-25T15:16:25;10.80;99.90
11840;DHT22;5979;50.800;4.904;2024-01-25T15:18:50;10.80;99.90
11840;DHT22;5979;50.800;4.904;2024-01-25T15:21:16;10.80;99.90
11840;DHT22;5979;50.800;4.904;2024-01-25T15:23:42;10.80;99.90
11840;DHT22;5979;50.800;4.904;2024-01-25T15:26:08;10.80;99.90
11840;DHT22;5979;50.800;4.904;2024-01-25T15:28:33;10.80;99.90
11840;DHT22;5979;50.800;4.904;2024-01-25T15:31:00;10.80;99.90
11840;DHT22;5979;50.800;4.904;2024-01-25T15:33:26;10.80;99.90
11840;DHT22;5979;50.800;4.904;2024-01-25T15:35:52;10.80;99.90
11840;DHT22;5979;50.800;4.904;2024-01-25T15:38:17;10.70;99.90
11840;DHT22;5979;50.800;4.904;2024-01-25T15:40:45;10.80;99.90
11840;DHT22;5979;50.800;4.904;2024-01-25T15:43:10;10.70;99.90
11840;DHT22;5979;50.800;4.904;2024-01-25T15:45:36;10.70;99.90
11840;DHT22;5979;50.800;4.904;2024-01-25T15:48:02;10.70;99.90
11840;DHT22;5979;50.800;4.904;2024-01-25T15:50:29;10.70;99.90
11840;DHT22;5979;50.800;4.904;2024-01-25T15:52:54;10.70;99.90
11840;DHT22;5979;50.800;4.904;2024-01-25T15:55:21;10.70;99.90